createdAt,value
2023-01-21T00:01:17.023Z,99122.38
2023-01-21T00:03:45.501Z,99104.03
2023-01-21T00:06:14.954Z,99119.13
2023-01-21T00:08:43.240Z,99115.75
2023-01-21T00:11:14.790Z,99114.22
2023-01-21T00:13:44.027Z,99122.53
2023-01-21T00:16:13.054Z,99115.75
2023-01-21T00:18:41.293Z,99115.47
2023-01-21T00:21:09.461Z,99118.97
2023-01-21T00:23:37.778Z,99130.44
2023-01-21T00:26:08.067Z,99142.66
2023-01-21T00:28:38.338Z,99127.13
2023-01-21T00:31:09.016Z,99139.50
2023-01-21T00:33:38.140Z,99132.97
2023-01-21T00:36:08.336Z,99127.97
2023-01-21T00:38:36.640Z,99126.19
2023-01-21T00:41:06.259Z,99128.81
2023-01-21T00:43:34.649Z,99132.13
2023-01-21T00:46:04.189Z,99130.59
2023-01-21T00:48:32.432Z,99127.97
2023-01-21T00:51:01.072Z,99130.59
2023-01-21T00:53:30.510Z,99129.50
2023-01-21T00:56:01.091Z,99133.31
2023-01-21T00:58:29.599Z,99125.75
2023-01-21T01:01:07.502Z,99136.56
2023-01-21T01:03:38.280Z,99135.78
2023-01-21T01:06:08.259Z,99135.84
2023-01-21T01:08:36.172Z,99139.06
2023-01-21T01:11:04.682Z,99135.94
2023-01-21T01:13:34.257Z,99140.09
2023-01-21T01:16:02.722Z,99140.84
2023-01-21T01:18:33.891Z,99142.56
2023-01-21T01:21:06.233Z,99145.97
2023-01-21T01:23:34.146Z,99147.66
2023-01-21T01:26:03.461Z,99146.72
2023-01-21T01:28:32.615Z,99125.59
2023-01-21T01:31:01.761Z,99149.19
2023-01-21T01:33:29.698Z,99143.59
2023-01-21T01:36:02.484Z,99146.91
2023-01-21T01:38:30.499Z,99149.34
2023-01-21T01:40:58.544Z,99139.34
2023-01-21T01:43:48.287Z,99144.44
2023-01-21T01:46:16.696Z,99149.34
2023-01-21T01:48:48.402Z,99142.72
2023-01-21T01:51:21.121Z,99146.81
2023-01-21T01:53:49.548Z,99146.13
2023-01-21T01:56:17.781Z,99133.56
2023-01-21T01:58:48.040Z,99133.22
2023-01-21T02:01:16.322Z,99137.41
2023-01-21T02:03:50.869Z,99143.16
2023-01-21T02:06:20.261Z,99141.56
2023-01-21T02:08:48.832Z,99134.16
2023-01-21T02:11:18.212Z,99134.94
2023-01-21T02:13:49.200Z,99120.34
2023-01-21T02:16:31.058Z,99122.03
2023-01-21T02:19:21.102Z,99115.41
2023-01-21T02:22:14.408Z,99115.56
2023-01-21T02:25:17.872Z,99120.47
2023-01-21T02:27:56.017Z,99117.25
2023-01-21T02:30:47.629Z,99118.94
2023-01-21T02:33:41.850Z,99115.56
2023-01-21T02:36:22.035Z,99123.03
2023-01-21T02:38:58.724Z,99118.09
2023-01-21T02:41:34.263Z,99114.88
2023-01-21T02:44:11.934Z,99109.88
2023-01-21T02:46:45.825Z,99109.88
2023-01-21T02:49:23.949Z,99101.53
2023-01-21T02:51:51.967Z,99098.47
2023-01-21T02:54:49.764Z,99097.63
2023-01-21T02:57:25.561Z,99091.38
2023-01-21T02:59:56.501Z,99104.94
2023-01-21T03:02:36.943Z,99100.94
2023-01-21T03:05:12.489Z,99103.50
2023-01-21T03:07:47.574Z,99107.56
2023-01-21T03:10:24.659Z,99105.09
2023-01-21T03:13:00.494Z,99104.34
2023-01-21T03:15:58.403Z,99106.91
2023-01-21T03:18:32.421Z,99100.25
2023-01-21T03:21:06.782Z,99099.41
2023-01-21T03:23:39.705Z,99084.63
2023-01-21T03:26:10.428Z,99089.41
2023-01-21T03:28:43.799Z,99097.72
2023-01-21T03:31:17.749Z,99099.41
2023-01-21T03:33:50.073Z,99100.19
2023-01-21T03:36:27.844Z,99099.41
2023-01-21T03:38:58.890Z,99100.94
2023-01-21T03:41:33.977Z,99091.09
2023-01-21T03:44:01.968Z,99092.78
2023-01-21T03:46:38.305Z,99096.03
2023-01-21T03:49:13.007Z,99097.72
2023-01-21T03:51:47.854Z,99089.56
2023-01-21T03:54:16.132Z,99094.50
2023-01-21T03:56:43.980Z,99093.66
2023-01-21T03:59:11.976Z,99094.56
2023-01-21T04:01:41.736Z,99086.94
2023-01-21T04:04:11.064Z,99086.34
2023-01-21T04:06:38.999Z,99078.38
2023-01-21T04:09:08.548Z,99086.34
2023-01-21T04:11:36.410Z,99097.81
2023-01-21T04:14:04.352Z,99091.09
2023-01-21T04:16:32.255Z,99091.25
2023-01-21T04:19:00.109Z,99092.03
2023-01-21T04:21:27.914Z,99093.66
2023-01-21T04:23:56.128Z,99097.72
2023-01-21T04:26:25.422Z,99089.16
2023-01-21T04:28:53.519Z,99099.25
2023-01-21T04:31:21.507Z,99096.69
2023-01-21T04:33:49.406Z,99107.25
2023-01-21T04:36:17.313Z,99104.72
2023-01-21T04:38:45.252Z,99106.31
2023-01-21T04:41:13.437Z,99112.78
2023-01-21T04:43:42.807Z,99087.31
2023-01-21T04:46:10.950Z,99101.81
2023-01-21T04:48:38.811Z,99120.25
2023-01-21T04:51:07.873Z,99127.63
2023-01-21T04:53:36.025Z,99124.06
2023-01-21T04:56:03.934Z,99120.75
2023-01-21T04:58:31.987Z,99139.28
2023-01-21T05:01:01.505Z,99146.81
2023-01-21T05:03:29.508Z,99147.75
2023-01-21T05:05:57.316Z,99152.75
2023-01-21T05:08:25.313Z,99165.16
2023-01-21T05:10:53.205Z,99140.03
2023-01-21T05:13:21.116Z,99161.94
2023-01-21T05:15:49.038Z,99164.31
2023-01-21T05:18:18.436Z,99175.00
2023-01-21T05:20:46.337Z,99176.69
2023-01-21T05:23:14.188Z,99171.44
2023-01-21T05:25:42.174Z,99174.25
2023-01-21T05:28:10.137Z,99173.88
2023-01-21T05:30:40.432Z,99184.00
2023-01-21T05:33:08.871Z,99182.38
2023-01-21T05:35:38.078Z,99188.94
2023-01-21T05:38:06.130Z,99197.94
2023-01-21T05:40:34.084Z,99207.97
2023-01-21T05:43:02.009Z,99200.22
2023-01-21T05:45:30.037Z,99207.97
2023-01-21T05:47:57.868Z,99216.19
2023-01-21T05:50:25.807Z,99207.09
2023-01-21T05:52:55.066Z,99216.19
2023-01-21T05:55:23.120Z,99203.03
2023-01-21T05:57:51.381Z,99221.22
2023-01-21T06:00:20.234Z,99229.38
2023-01-21T06:02:48.191Z,99217.06
2023-01-21T06:05:16.230Z,99225.28
2023-01-21T06:07:44.098Z,99216.09
2023-01-21T06:10:13.436Z,99220.44
2023-01-21T06:12:41.282Z,99222.06
2023-01-21T06:15:10.058Z,99236.16
2023-01-21T06:17:40.131Z,99255.97
2023-01-21T06:20:09.794Z,99220.53
2023-01-21T06:22:37.755Z,99252.56
2023-01-21T06:25:06.311Z,99260.97
2023-01-21T06:27:37.194Z,99264.34
2023-01-21T06:30:06.353Z,99260.97
2023-01-21T06:32:34.703Z,99270.97
2023-01-21T06:35:02.622Z,99268.44
2023-01-21T06:37:30.957Z,99269.13
2023-01-21T06:39:59.024Z,99283.47
2023-01-21T06:42:27.212Z,99278.97
2023-01-21T06:44:56.576Z,99291.03
2023-01-21T06:47:24.474Z,99299.28
2023-01-21T06:49:52.881Z,99305.34
2023-01-21T06:52:20.706Z,99305.66
2023-01-21T06:54:49.194Z,99316.63
2023-01-21T06:57:17.227Z,99315.97
2023-01-21T06:59:45.163Z,99309.75
2023-01-21T07:02:14.653Z,99325.41
2023-01-21T07:04:44.959Z,99311.28
2023-01-21T07:07:12.895Z,99312.47
2023-01-21T07:09:40.820Z,99318.34
2023-01-21T07:12:08.955Z,99314.34
2023-01-21T07:14:36.956Z,99308.75
2023-01-21T07:17:04.893Z,99324.56
2023-01-21T07:19:34.155Z,99323.72
2023-01-21T07:22:02.111Z,99325.41
2023-01-21T07:24:30.139Z,99333.75
2023-01-21T07:26:58.147Z,99335.94
2023-01-21T07:29:28.001Z,99348.72
2023-01-21T07:31:55.926Z,99347.00
2023-01-21T07:34:24.073Z,99356.16
2023-01-21T07:36:53.431Z,99357.97
2023-01-21T07:39:21.379Z,99351.41
2023-01-21T07:41:49.728Z,99364.00
2023-01-21T07:44:18.986Z,99365.72
2023-01-21T07:46:46.796Z,99350.81
2023-01-21T07:49:18.286Z,99355.50
2023-01-21T07:51:46.814Z,99362.16
2023-01-21T07:54:16.338Z,99362.28
2023-01-21T07:56:44.261Z,99368.06
2023-01-21T07:59:13.345Z,99362.97
2023-01-21T08:01:41.462Z,99363.22
2023-01-21T08:04:09.854Z,99364.16
2023-01-21T08:06:41.193Z,99369.94
2023-01-21T08:09:10.220Z,99369.09
2023-01-21T08:11:39.451Z,99375.75
2023-01-21T08:14:07.348Z,99380.75
2023-01-21T08:16:35.274Z,99382.53
2023-01-21T08:19:03.195Z,99376.84
2023-01-21T08:21:30.976Z,99388.41
2023-01-21T08:23:59.008Z,99381.25
2023-01-21T08:26:26.876Z,99383.88
2023-01-21T08:28:56.201Z,99394.94
2023-01-21T08:31:24.310Z,99388.50
2023-01-21T08:33:52.244Z,99386.63
2023-01-21T08:36:20.126Z,99398.53
2023-01-21T08:38:48.883Z,99400.38
2023-01-21T08:41:17.814Z,99402.06
2023-01-21T08:43:45.724Z,99400.53
2023-01-21T08:46:15.657Z,99412.97
2023-01-21T08:48:43.539Z,99411.81
2023-01-21T08:51:11.579Z,99411.94
2023-01-21T08:53:39.474Z,99409.66
2023-01-21T08:56:07.794Z,99418.00
2023-01-21T08:58:35.817Z,99416.63
2023-01-21T09:01:08.628Z,99403.09
2023-01-21T09:03:38.526Z,99410.06
2023-01-21T09:06:07.467Z,99422.00
2023-01-21T09:08:36.508Z,99420.47
2023-01-21T09:11:06.808Z,99409.16
2023-01-21T09:13:37.517Z,99414.69
2023-01-21T09:16:09.916Z,99423.22
2023-01-21T09:18:39.320Z,99426.53
2023-01-21T09:21:07.981Z,99425.75
2023-01-21T09:23:36.899Z,99430.63
2023-01-21T09:26:07.987Z,99431.38
2023-01-21T09:28:37.853Z,99420.75
2023-01-21T09:31:07.368Z,99435.28
2023-01-21T09:33:37.560Z,99435.44
2023-01-21T09:36:09.071Z,99434.59
2023-01-21T09:38:36.912Z,99430.59
2023-01-21T09:41:18.827Z,99438.69
2023-01-21T09:43:50.459Z,99441.75
2023-01-21T09:46:28.976Z,99447.44
2023-01-21T09:48:59.201Z,99431.78
2023-01-21T09:51:36.773Z,99447.03
2023-01-21T09:54:14.679Z,99443.19
2023-01-21T09:56:53.222Z,99437.13
2023-01-21T09:59:28.545Z,99426.72
2023-01-21T10:02:00.302Z,99431.16
2023-01-21T10:04:40.411Z,99427.97
2023-01-21T10:07:16.314Z,99425.50
2023-01-21T10:10:03.274Z,99440.31
2023-01-21T10:12:53.597Z,99435.53
2023-01-21T10:15:47.769Z,99442.19
2023-01-21T10:18:19.565Z,99443.91
2023-01-21T10:20:52.021Z,99442.38
2023-01-21T10:23:25.964Z,99440.06
2023-01-21T10:25:53.861Z,99431.72
2023-01-21T10:28:25.209Z,99433.34
2023-01-21T10:30:54.478Z,99435.72
2023-01-21T10:33:25.357Z,99428.16
2023-01-21T10:36:11.818Z,99421.41
2023-01-21T10:38:45.731Z,99418.25
2023-01-21T10:41:25.108Z,99430.78
2023-01-21T10:44:01.753Z,99425.31
2023-01-21T10:46:38.120Z,99422.00
2023-01-21T10:49:20.801Z,99424.94
2023-01-21T10:51:53.624Z,99423.16
2023-01-21T10:54:31.088Z,99439.00
2023-01-21T10:57:07.787Z,99433.88
2023-01-21T10:59:38.235Z,99433.84
2023-01-21T11:02:19.562Z,99427.88
2023-01-21T11:04:47.798Z,99442.22
2023-01-21T11:07:20.797Z,99440.00
2023-01-21T11:09:50.289Z,99439.31
2023-01-21T11:12:20.374Z,99451.84
2023-01-21T11:14:51.908Z,99443.50
2023-01-21T11:17:34.709Z,99443.41
2023-01-21T11:20:05.498Z,99447.41
2023-01-21T11:22:33.855Z,99437.47
2023-01-21T11:25:03.564Z,99436.59
2023-01-21T11:27:36.296Z,99442.31
2023-01-21T11:30:16.631Z,99439.00
2023-01-21T11:32:48.900Z,99447.94
2023-01-21T11:35:21.989Z,99439.00
2023-01-21T11:37:50.002Z,99447.09
2023-01-21T11:40:25.107Z,99447.00
2023-01-21T11:42:55.290Z,99438.06
2023-01-21T11:45:29.795Z,99438.38
2023-01-21T11:47:58.921Z,99446.72
2023-01-21T11:50:29.444Z,99430.03
2023-01-21T11:53:11.404Z,99433.94
2023-01-21T11:55:42.307Z,99438.66
2023-01-21T11:58:19.856Z,99438.25
2023-01-21T12:00:50.741Z,99428.16
2023-01-21T12:03:22.116Z,99445.47
2023-01-21T12:05:53.008Z,99444.44
2023-01-21T12:08:24.287Z,99444.72
2023-01-21T12:10:55.980Z,99445.19
2023-01-21T12:13:30.659Z,99425.41
2023-01-21T12:16:28.706Z,99433.28
2023-01-21T12:19:33.633Z,99446.91
2023-01-21T12:22:20.385Z,99417.69
2023-01-21T12:25:04.894Z,99446.00
2023-01-21T12:27:45.023Z,99441.38
2023-01-21T12:30:26.079Z,99439.44
2023-01-21T12:32:58.538Z,99430.38
2023-01-21T12:35:31.333Z,99453.72
2023-01-21T12:38:05.631Z,99440.09
2023-01-21T12:40:38.369Z,99442.47
2023-01-21T12:43:16.887Z,99438.91
2023-01-21T12:45:49.908Z,99450.31
2023-01-21T12:48:25.637Z,99438.97
2023-01-21T12:50:59.109Z,99443.91
2023-01-21T12:53:33.958Z,99436.31
2023-01-21T12:56:19.114Z,99463.81
2023-01-21T12:58:55.792Z,99452.91
2023-01-21T13:01:40.739Z,99459.56
2023-01-21T13:04:25.243Z,99461.94
2023-01-21T13:07:01.865Z,99468.00
2023-01-21T13:09:38.334Z,99476.94
2023-01-21T13:12:12.620Z,99479.31
2023-01-21T13:14:48.282Z,99480.16
2023-01-21T13:17:19.996Z,99476.75
2023-01-21T13:19:48.003Z,99483.56
2023-01-21T13:22:26.287Z,99483.50
2023-01-21T13:25:05.820Z,99500.78
2023-01-21T13:27:44.326Z,99498.41
2023-01-21T13:30:24.811Z,99495.16
2023-01-21T13:33:05.574Z,99502.16
2023-01-21T13:35:42.354Z,99504.03
2023-01-21T13:38:21.141Z,99512.88
2023-01-21T13:40:54.672Z,99517.81
2023-01-21T13:43:38.362Z,99528.38
2023-01-21T13:46:20.712Z,99528.31
2023-01-21T13:49:07.398Z,99532.31
2023-01-21T13:51:44.329Z,99529.84
2023-01-21T13:54:28.055Z,99531.28
2023-01-21T13:57:08.631Z,99502.25
2023-01-21T13:59:43.069Z,99540.50
2023-01-21T14:02:18.634Z,99539.63
2023-01-21T14:04:52.757Z,99541.09
2023-01-21T14:07:28.081Z,99545.06
2023-01-21T14:10:03.274Z,99544.91
2023-01-21T14:12:49.395Z,99539.28
2023-01-21T14:15:32.307Z,99549.53
2023-01-21T14:18:18.166Z,99555.22
2023-01-21T14:20:58.373Z,99560.22
2023-01-21T14:23:47.231Z,99557.44
2023-01-21T14:26:36.032Z,99563.22
2023-01-21T14:29:12.413Z,99565.69
2023-01-21T14:31:44.227Z,99555.38
2023-01-21T14:34:19.368Z,99563.03
2023-01-21T14:36:55.976Z,99578.59
2023-01-21T14:39:43.028Z,99556.81
2023-01-21T14:42:12.673Z,99573.50
2023-01-21T14:44:45.393Z,99579.97
2023-01-21T14:47:18.934Z,99584.91
2023-01-21T14:49:50.435Z,99582.41
2023-01-21T14:52:21.239Z,99590.50
2023-01-21T14:54:49.956Z,99581.16
2023-01-21T14:57:26.487Z,99565.81
2023-01-21T15:00:02.351Z,99586.94
2023-01-21T15:02:32.104Z,99580.38
2023-01-21T15:05:03.585Z,99589.41
2023-01-21T15:07:36.286Z,99587.44
2023-01-21T15:10:11.581Z,99596.72
2023-01-21T15:12:42.962Z,99595.09
2023-01-21T15:15:31.053Z,99602.41
2023-01-21T15:18:23.330Z,99602.25
2023-01-21T15:20:57.976Z,99597.97
2023-01-21T15:23:38.408Z,99597.13
2023-01-21T15:26:20.176Z,99586.88
2023-01-21T15:28:49.235Z,99605.19
2023-01-21T15:31:43.474Z,99601.00
2023-01-21T15:34:17.296Z,99598.47
2023-01-21T15:36:52.767Z,99598.47
2023-01-21T15:39:26.321Z,99605.09
2023-01-21T15:42:06.453Z,99604.16
2023-01-21T15:44:48.528Z,99606.63
2023-01-21T15:47:34.760Z,99617.28
2023-01-21T15:50:10.496Z,99619.75
2023-01-21T15:52:55.771Z,99617.19
2023-01-21T15:55:36.381Z,99618.72
2023-01-21T15:58:15.956Z,99632.00
2023-01-21T16:00:51.644Z,99640.16
2023-01-21T16:03:26.219Z,99643.47
2023-01-21T16:06:02.311Z,99651.81
2023-01-21T16:11:56.335Z,99645.00
2023-01-21T16:14:38.747Z,99680.13
2023-01-21T16:17:17.437Z,99674.91
2023-01-21T16:19:49.186Z,99683.81
2023-01-21T16:22:25.788Z,99684.41
2023-01-21T16:24:58.247Z,99687.53
2023-01-21T16:27:30.954Z,99689.06
2023-01-21T16:30:00.617Z,99700.44
2023-01-21T16:32:30.995Z,99702.91
2023-01-21T16:35:01.706Z,99702.81
2023-01-21T16:37:31.078Z,99707.09
2023-01-21T16:40:21.761Z,99714.47
2023-01-21T16:43:07.154Z,99720.38
2023-01-21T16:45:35.081Z,99709.75
2023-01-21T16:48:03.007Z,99715.63
2023-01-21T16:50:33.138Z,99712.22
2023-01-21T16:53:08.601Z,99712.22
2023-01-21T16:55:45.680Z,99714.59
2023-01-21T16:58:27.708Z,99712.22
2023-01-21T17:01:02.238Z,99715.25
2023-01-21T17:03:32.172Z,99723.78
2023-01-21T17:06:05.563Z,99732.13
2023-01-21T17:08:34.481Z,99739.69
2023-01-21T17:11:04.991Z,99738.00
2023-01-21T17:13:34.773Z,99729.47
2023-01-21T17:16:04.485Z,99744.72
2023-01-21T17:18:36.441Z,99750.50
2023-01-21T17:21:08.245Z,99751.28
2023-01-21T17:23:40.499Z,99759.44
2023-01-21T17:26:16.556Z,99761.91
2023-01-21T17:28:49.182Z,99761.91
2023-01-21T17:31:28.157Z,99760.19
2023-01-21T17:34:18.728Z,99754.34
2023-01-21T17:36:49.053Z,99759.63
2023-01-21T17:39:56.686Z,99767.03
2023-01-21T17:42:26.777Z,99771.97
2023-01-21T17:44:59.016Z,99771.97
2023-01-21T17:47:30.209Z,99771.97
2023-01-21T17:50:00.248Z,99772.72
2023-01-21T17:52:28.702Z,99770.34
2023-01-21T17:55:15.447Z,99776.13
2023-01-21T17:57:43.699Z,99775.94
2023-01-21T18:00:29.343Z,99769.28
2023-01-21T18:02:59.588Z,99762.31
2023-01-21T18:05:28.491Z,99771.00
2023-01-21T18:07:56.549Z,99775.19
2023-01-21T18:10:27.907Z,99774.22
2023-01-21T18:12:56.938Z,99785.72
2023-01-21T18:15:27.097Z,99790.19
2023-01-21T18:17:58.107Z,99781.81
2023-01-21T18:20:28.111Z,99776.91
2023-01-21T18:22:58.268Z,99778.41
2023-01-21T18:25:27.856Z,99789.22
2023-01-21T18:27:56.741Z,99790.00
2023-01-21T18:30:28.357Z,99788.47
2023-01-21T18:32:57.786Z,99793.41
2023-01-21T18:35:28.929Z,99788.56
2023-01-21T18:37:57.193Z,99802.16
2023-01-21T18:40:25.425Z,99807.63
2023-01-21T18:42:55.941Z,99813.81
2023-01-21T18:45:28.189Z,99804.59
2023-01-21T18:47:58.894Z,99804.13
2023-01-21T18:50:28.646Z,99820.34
2023-01-21T18:52:57.309Z,99819.56
2023-01-21T18:55:28.969Z,99818.63
2023-01-21T18:57:58.030Z,99823.75
2023-01-21T19:00:29.928Z,99814.72
2023-01-21T19:03:01.071Z,99819.66
2023-01-21T19:05:33.927Z,99832.13
2023-01-21T19:08:02.713Z,99836.19
2023-01-21T19:10:30.534Z,99828.88
2023-01-21T19:12:58.482Z,99819.75
2023-01-21T19:15:29.651Z,99824.81
2023-01-21T19:17:58.457Z,99825.47
2023-01-21T19:20:28.848Z,99826.22
2023-01-21T19:22:57.712Z,99828.88
2023-01-21T19:25:27.207Z,99825.47
2023-01-21T19:27:57.581Z,99842.19
2023-01-21T19:30:29.106Z,99836.56
2023-01-21T19:33:00.617Z,99849.69
2023-01-21T19:35:34.323Z,99851.38
2023-01-21T19:38:03.126Z,99855.66
2023-01-21T19:40:31.966Z,99850.53
2023-01-21T19:42:59.848Z,99850.72
2023-01-21T19:45:30.209Z,99851.50
2023-01-21T19:47:58.125Z,99857.28
2023-01-21T19:50:27.657Z,99858.91
2023-01-21T19:52:56.157Z,99853.97
2023-01-21T19:55:26.459Z,99855.56
2023-01-21T19:57:57.428Z,99866.22
2023-01-21T20:00:27.394Z,99859.16
2023-01-21T20:02:56.881Z,99874.56
2023-01-21T20:05:27.635Z,99875.41
2023-01-21T20:07:55.952Z,99866.00
2023-01-21T20:10:26.534Z,99878.03
2023-01-21T20:12:55.050Z,99880.50
2023-01-21T20:15:26.790Z,99884.69
2023-01-21T20:17:59.033Z,99887.16
2023-01-21T20:20:28.648Z,99882.97
2023-01-21T20:22:56.953Z,99876.19
2023-01-21T20:25:26.331Z,99885.28
2023-01-21T20:27:57.857Z,99881.69
2023-01-21T20:30:28.683Z,99882.63
2023-01-21T20:33:00.940Z,99879.13
2023-01-21T20:35:29.188Z,99886.41
2023-01-21T20:37:58.942Z,99860.59
2023-01-21T20:40:29.744Z,99877.88
2023-01-21T20:42:58.605Z,99878.53
2023-01-21T20:45:31.524Z,99874.09
2023-01-21T20:48:03.356Z,99880.44
2023-01-21T20:50:35.420Z,99883.84
2023-01-21T20:53:04.615Z,99887.28
2023-01-21T20:55:32.766Z,99888.13
2023-01-21T20:58:00.734Z,99886.41
2023-01-21T21:00:31.649Z,99895.63
2023-01-21T21:03:01.148Z,99871.72
2023-01-21T21:05:29.655Z,99899.91
2023-01-21T21:07:57.671Z,99899.06
2023-01-21T21:10:29.328Z,99892.88
2023-01-21T21:12:58.809Z,99837.66
2023-01-21T21:15:28.256Z,99905.88
2023-01-21T21:17:56.951Z,99894.13
2023-01-21T21:20:28.845Z,99911.75
2023-01-21T21:22:56.995Z,99913.56
2023-01-21T21:25:27.403Z,99913.56
2023-01-21T21:27:55.982Z,99915.28
2023-01-21T21:30:25.996Z,99913.56
2023-01-21T21:32:54.039Z,99916.03
2023-01-21T21:35:28.353Z,99913.47
2023-01-21T21:38:02.021Z,99920.97
2023-01-21T21:40:30.574Z,99917.56
2023-01-21T21:43:16.569Z,99917.47
2023-01-21T21:45:58.840Z,99921.47
2023-01-21T21:48:38.799Z,99922.34
2023-01-21T21:51:09.415Z,99920.63
2023-01-21T21:53:38.000Z,99924.59
2023-01-21T21:56:08.281Z,99921.28
2023-01-21T21:58:36.237Z,99902.34
2023-01-21T22:01:11.724Z,99919.47
2023-01-21T22:03:40.097Z,99925.25
2023-01-21T22:06:10.160Z,99929.34
2023-01-21T22:08:39.516Z,99918.22
2023-01-21T22:11:09.064Z,99922.31
2023-01-21T22:13:40.272Z,99929.34
2023-01-21T22:16:11.668Z,99927.84
2023-01-21T22:18:40.233Z,99929.63
2023-01-21T22:21:12.118Z,99924.88
2023-01-21T22:23:40.179Z,99933.13
2023-01-21T22:26:12.335Z,99937.16
2023-01-21T22:28:40.799Z,99923.34
2023-01-21T22:31:11.185Z,99932.78
2023-01-21T22:33:40.385Z,99928.69
2023-01-21T22:36:12.032Z,99918.22
2023-01-21T22:38:41.019Z,99931.41
2023-01-21T22:41:10.837Z,99937.41
2023-01-21T22:43:41.752Z,99931.63
2023-01-21T22:46:12.001Z,99926.66
2023-01-21T22:48:41.466Z,99928.19
2023-01-21T22:51:13.214Z,99925.72
2023-01-21T22:53:41.520Z,99915.59
2023-01-21T22:56:09.473Z,99925.81
2023-01-21T22:58:37.621Z,99926.66
2023-01-21T23:01:06.259Z,99926.78
2023-01-21T23:03:34.241Z,99931.81
2023-01-21T23:06:06.284Z,99924.31
2023-01-21T23:08:37.322Z,99916.78
2023-01-21T23:11:07.556Z,99921.84
2023-01-21T23:13:36.350Z,99913.75
2023-01-21T23:16:09.815Z,99872.75
2023-01-21T23:18:40.396Z,99908.81
2023-01-21T23:21:09.603Z,99902.75
2023-01-21T23:23:39.077Z,99909.97
2023-01-21T23:26:09.797Z,99899.06
2023-01-21T23:28:41.441Z,99900.94
2023-01-21T23:31:11.545Z,99906.56
2023-01-21T23:33:41.350Z,99887.75
2023-01-21T23:36:11.282Z,99916.69
2023-01-21T23:38:41.397Z,99888.88
2023-01-21T23:41:10.798Z,99908.81
2023-01-21T23:43:38.954Z,99910.72
2023-01-21T23:46:08.111Z,99917.09
2023-01-21T23:48:36.027Z,99922.78
2023-01-21T23:51:04.738Z,99917.00
2023-01-21T23:53:34.305Z,99921.25
2023-01-21T23:56:08.537Z,99924.59
2023-01-21T23:58:36.478Z,99927.06
